createdAt,value
2019-03-27T00:01:11.162Z,129.80
2019-03-27T00:03:41.417Z,134.43
2019-03-27T00:06:11.764Z,132.67
2019-03-27T00:08:41.946Z,126.47
2019-03-27T00:11:12.143Z,127.97
2019-03-27T00:13:42.315Z,127.63
2019-03-27T00:16:12.500Z,134.37
2019-03-27T00:18:42.688Z,127.83
2019-03-27T00:21:12.862Z,130.53
2019-03-27T00:23:43.051Z,130.57
2019-03-27T00:26:13.240Z,137.30
2019-03-27T00:28:43.464Z,131.67
2019-03-27T00:31:13.646Z,126.13
2019-03-27T00:33:43.823Z,127.63
2019-03-27T00:36:14.010Z,125.57
2019-03-27T00:38:44.188Z,133.33
2019-03-27T00:41:14.390Z,131.33
2019-03-27T00:43:45.643Z,135.03
2019-03-27T00:46:15.828Z,127.03
2019-03-27T00:48:46.031Z,130.00
2019-03-27T00:51:16.212Z,128.03
2019-03-27T00:53:46.388Z,134.67
2019-03-27T00:56:17.641Z,131.60
2019-03-27T00:58:47.814Z,143.40
2019-03-27T01:01:18.155Z,142.63
2019-03-27T01:03:48.379Z,142.53
2019-03-27T01:06:18.578Z,140.57
2019-03-27T01:08:48.767Z,139.17
2019-03-27T01:11:18.951Z,135.23
2019-03-27T01:13:49.137Z,136.07
2019-03-27T01:16:19.390Z,136.03
2019-03-27T01:18:49.618Z,138.90
2019-03-27T01:21:19.798Z,134.90
2019-03-27T01:23:49.974Z,139.13
2019-03-27T01:26:20.154Z,140.03
2019-03-27T01:28:50.347Z,136.70
2019-03-27T01:31:20.601Z,136.67
2019-03-27T01:33:50.791Z,139.40
2019-03-27T01:36:21.011Z,137.03
2019-03-27T01:38:51.195Z,142.93
2019-03-27T01:41:21.543Z,139.17
2019-03-27T01:43:51.726Z,143.83
2019-03-27T01:46:21.914Z,139.17
2019-03-27T01:48:52.090Z,138.67
2019-03-27T01:51:22.279Z,139.33
2019-03-27T01:53:52.464Z,141.77
2019-03-27T01:56:22.645Z,137.27
2019-03-27T01:58:52.814Z,131.17
2019-03-27T02:01:23.007Z,134.27
2019-03-27T02:03:53.255Z,142.37
2019-03-27T02:06:23.438Z,136.87
2019-03-27T02:08:53.618Z,138.20
2019-03-27T02:11:23.813Z,137.13
2019-03-27T02:13:53.985Z,134.60
2019-03-27T02:16:24.177Z,127.33
2019-03-27T02:18:54.355Z,128.53
2019-03-27T02:21:24.935Z,126.30
2019-03-27T02:23:55.122Z,134.07
2019-03-27T02:26:25.302Z,128.30
2019-03-27T02:28:55.492Z,125.07
2019-03-27T02:31:25.759Z,131.60
2019-03-27T02:33:55.931Z,124.17
2019-03-27T02:36:27.186Z,125.53
2019-03-27T02:38:57.480Z,129.30
2019-03-27T02:41:27.664Z,127.27
2019-03-27T02:43:58.920Z,125.30
2019-03-27T02:46:29.126Z,127.60
2019-03-27T02:48:59.301Z,126.20
2019-03-27T02:51:30.456Z,121.13
2019-03-27T02:54:01.704Z,125.63
2019-03-27T02:56:31.911Z,122.23
2019-03-27T02:59:02.077Z,126.40
2019-03-27T03:01:32.348Z,128.13
2019-03-27T03:04:02.591Z,132.53
2019-03-27T03:06:32.770Z,130.57
2019-03-27T03:09:04.620Z,127.47
2019-03-27T03:11:34.888Z,122.23
2019-03-27T03:14:05.144Z,145.10
2019-03-27T03:16:42.777Z,124.97
2019-03-27T03:19:07.212Z,125.63
2019-03-27T03:21:37.416Z,124.80
2019-03-27T03:24:07.664Z,124.17
2019-03-27T03:26:37.847Z,121.70
2019-03-27T03:29:08.040Z,125.07
2019-03-27T03:31:38.257Z,123.70
2019-03-27T03:34:08.472Z,122.10
2019-03-27T03:36:38.727Z,132.67
2019-03-27T03:39:09.354Z,127.07
2019-03-27T03:41:39.604Z,122.03
2019-03-27T03:44:09.775Z,125.23
2019-03-27T03:46:40.075Z,130.83
2019-03-27T03:49:10.389Z,125.07
2019-03-27T03:51:40.683Z,125.10
2019-03-27T03:54:11.116Z,124.30
2019-03-27T03:56:42.361Z,127.10
2019-03-27T03:59:14.859Z,129.07
2019-03-27T04:01:46.038Z,129.60
2019-03-27T04:04:17.223Z,125.33
2019-03-27T04:06:47.420Z,126.90
2019-03-27T04:09:18.679Z,130.90
2019-03-27T04:11:48.870Z,124.00
2019-03-27T04:14:20.145Z,127.70
2019-03-27T04:16:50.389Z,123.70
2019-03-27T04:19:20.557Z,122.87
2019-03-27T04:21:50.766Z,128.27
2019-03-27T04:24:20.952Z,125.13
2019-03-27T04:26:51.164Z,131.60
2019-03-27T04:29:21.335Z,132.67
2019-03-27T04:31:51.630Z,125.20
2019-03-27T04:34:21.803Z,123.40
2019-03-27T04:36:51.991Z,125.87
2019-03-27T04:39:22.166Z,126.90
2019-03-27T04:41:52.351Z,127.93
2019-03-27T04:44:22.531Z,130.53
2019-03-27T04:46:53.022Z,132.00
2019-03-27T04:49:23.293Z,123.57
2019-03-27T04:51:53.578Z,127.20
2019-03-27T04:54:26.845Z,121.60
2019-03-27T04:56:55.639Z,124.57
2019-03-27T04:59:25.819Z,122.37
2019-03-27T05:01:56.013Z,120.40
2019-03-27T05:04:26.687Z,125.40
2019-03-27T05:06:56.879Z,127.67
2019-03-27T05:09:27.072Z,122.43
2019-03-27T05:11:57.255Z,124.03
2019-03-27T05:14:27.551Z,128.63
2019-03-27T05:16:58.150Z,123.23
2019-03-27T05:19:28.334Z,122.53
2019-03-27T05:22:17.485Z,121.90
2019-03-27T05:24:47.670Z,121.80
2019-03-27T05:27:17.850Z,121.37
2019-03-27T05:29:48.030Z,121.57
2019-03-27T05:32:18.218Z,127.43
2019-03-27T05:35:03.935Z,123.30
2019-03-27T05:37:34.118Z,121.07
2019-03-27T05:40:07.127Z,131.00
2019-03-27T05:42:37.487Z,124.77
2019-03-27T05:45:08.115Z,126.10
2019-03-27T05:47:38.303Z,121.37
2019-03-27T05:50:09.226Z,127.10
2019-03-27T05:52:39.586Z,121.37
2019-03-27T05:55:09.921Z,120.90
2019-03-27T05:57:41.070Z,123.70
2019-03-27T06:00:12.762Z,125.93
2019-03-27T06:02:42.954Z,119.77
2019-03-27T06:05:13.212Z,130.57
2019-03-27T06:07:43.406Z,124.23
2019-03-27T06:10:16.246Z,120.97
2019-03-27T06:12:45.635Z,124.07
2019-03-27T06:15:15.903Z,128.67
2019-03-27T06:17:46.083Z,123.47
2019-03-27T06:20:16.432Z,123.37
2019-03-27T06:22:46.611Z,121.13
2019-03-27T06:25:16.791Z,121.30
2019-03-27T06:27:47.947Z,120.53
2019-03-27T06:30:18.316Z,130.17
2019-03-27T06:32:48.509Z,124.03
2019-03-27T06:35:20.148Z,122.63
2019-03-27T06:37:51.807Z,121.17
2019-03-27T06:40:21.994Z,127.67
2019-03-27T06:42:52.182Z,130.10
2019-03-27T06:45:22.358Z,124.30
2019-03-27T06:47:52.551Z,121.80
2019-03-27T06:50:22.726Z,125.33
2019-03-27T06:52:52.911Z,123.93
2019-03-27T06:55:23.171Z,124.00
2019-03-27T06:57:53.397Z,123.20
2019-03-27T07:00:34.676Z,129.70
2019-03-27T07:03:05.468Z,126.47
2019-03-27T07:05:35.926Z,122.73
2019-03-27T07:08:07.172Z,129.13
2019-03-27T07:10:37.450Z,127.03
2019-03-27T07:13:09.250Z,122.23
2019-03-27T07:15:39.426Z,124.93
2019-03-27T07:18:09.650Z,122.63
2019-03-27T07:20:41.269Z,129.43
2019-03-27T07:23:11.704Z,128.93
2019-03-27T07:25:42.848Z,134.13
2019-03-27T07:28:13.043Z,124.13
2019-03-27T07:30:43.239Z,125.77
2019-03-27T07:33:13.565Z,123.73
2019-03-27T07:35:43.748Z,129.70
2019-03-27T07:38:13.942Z,125.63
2019-03-27T07:40:45.266Z,127.67
2019-03-27T07:43:15.461Z,128.33
2019-03-27T07:45:48.130Z,127.17
2019-03-27T07:48:18.716Z,127.30
2019-03-27T07:50:48.897Z,126.97
2019-03-27T07:53:22.277Z,129.03
2019-03-27T07:55:51.261Z,128.97
2019-03-27T07:58:21.511Z,131.90
2019-03-27T08:00:57.869Z,129.53
2019-03-27T08:03:33.678Z,158.07
2019-03-27T08:06:05.483Z,127.97
2019-03-27T08:08:35.678Z,134.83
2019-03-27T08:11:05.945Z,131.97
2019-03-27T08:13:36.126Z,131.97
2019-03-27T08:16:06.319Z,132.90
2019-03-27T08:18:36.591Z,131.53
2019-03-27T08:21:06.999Z,138.13
2019-03-27T08:23:37.187Z,131.30
2019-03-27T08:26:07.371Z,132.60
2019-03-27T08:28:37.559Z,131.17
2019-03-27T08:31:07.734Z,134.77
2019-03-27T08:33:38.003Z,132.60
2019-03-27T08:36:08.179Z,131.93
2019-03-27T08:38:38.367Z,131.93
2019-03-27T08:41:08.535Z,135.97
2019-03-27T08:43:38.811Z,133.17
2019-03-27T08:46:09.126Z,133.23
2019-03-27T08:48:39.476Z,136.70
2019-03-27T08:51:09.870Z,133.23
2019-03-27T08:53:40.071Z,133.03
2019-03-27T08:56:10.941Z,133.53
2019-03-27T08:58:41.214Z,136.53
2019-03-27T09:01:11.390Z,134.90
2019-03-27T09:03:41.610Z,139.63
2019-03-27T09:06:11.797Z,137.10
2019-03-27T09:08:42.175Z,135.37
2019-03-27T09:11:12.368Z,137.77
2019-03-27T09:13:42.560Z,134.00
2019-03-27T09:16:12.809Z,132.10
2019-03-27T09:18:44.036Z,135.47
2019-03-27T09:21:14.207Z,135.80
2019-03-27T09:23:45.977Z,136.33
2019-03-27T09:26:16.415Z,133.03
2019-03-27T09:28:46.603Z,135.27
2019-03-27T09:31:16.782Z,134.77
2019-03-27T09:36:38.419Z,135.23
2019-03-27T09:39:10.655Z,136.53
2019-03-27T09:41:40.914Z,142.03
2019-03-27T09:44:11.105Z,136.87
2019-03-27T09:46:41.279Z,135.97
2019-03-27T09:49:11.532Z,136.70
2019-03-27T09:51:41.796Z,137.37
2019-03-27T09:54:12.083Z,140.67
2019-03-27T09:56:44.656Z,138.77
2019-03-27T09:59:14.838Z,140.97
2019-03-27T10:01:45.020Z,135.23
2019-03-27T10:04:15.323Z,136.90
2019-03-27T10:06:45.504Z,137.47
2019-03-27T10:09:15.702Z,139.43
2019-03-27T10:11:45.951Z,140.73
2019-03-27T10:14:16.211Z,136.93
2019-03-27T10:16:46.387Z,136.77
2019-03-27T10:19:16.583Z,135.57
2019-03-27T10:21:46.847Z,137.83
2019-03-27T10:24:17.108Z,146.57
2019-03-27T10:26:47.287Z,148.40
2019-03-27T10:29:17.479Z,137.90
2019-03-27T10:31:47.737Z,146.70
2019-03-27T10:34:17.931Z,146.67
2019-03-27T10:36:48.100Z,149.53
2019-03-27T10:39:18.326Z,149.50
2019-03-27T10:41:48.582Z,146.67
2019-03-27T10:44:18.974Z,146.70
2019-03-27T10:46:49.159Z,146.33
2019-03-27T10:49:19.426Z,146.17
2019-03-27T10:51:49.611Z,136.93
2019-03-27T10:54:19.917Z,137.13
2019-03-27T10:56:50.090Z,135.27
2019-03-27T10:59:20.272Z,135.80
2019-03-27T11:01:50.447Z,136.10
2019-03-27T11:04:20.653Z,134.67
2019-03-27T11:06:54.883Z,136.83
2019-03-27T11:09:25.140Z,135.77
2019-03-27T11:11:55.319Z,138.27
2019-03-27T11:14:37.264Z,136.27
2019-03-27T11:16:57.386Z,135.93
2019-03-27T11:19:27.663Z,134.77
2019-03-27T11:21:57.846Z,135.80
2019-03-27T11:24:28.119Z,135.43
2019-03-27T11:26:58.295Z,138.23
2019-03-27T11:29:28.490Z,136.33
2019-03-27T11:31:58.753Z,136.10
2019-03-27T11:34:29.012Z,137.03
2019-03-27T11:36:59.287Z,136.77
2019-03-27T11:39:31.183Z,138.83
2019-03-27T11:42:01.399Z,137.20
2019-03-27T11:44:31.830Z,136.27
2019-03-27T11:47:02.023Z,143.37
2019-03-27T11:49:32.212Z,137.77
2019-03-27T11:52:02.391Z,138.20
2019-03-27T11:54:32.583Z,136.87
2019-03-27T11:57:02.927Z,137.07
2019-03-27T11:59:33.330Z,138.03
2019-03-27T12:02:03.686Z,138.00
2019-03-27T12:04:33.872Z,136.53
2019-03-27T12:07:05.023Z,134.47
2019-03-27T12:09:35.218Z,136.50
2019-03-27T12:12:05.554Z,136.53
2019-03-27T12:14:35.876Z,137.37
2019-03-27T12:17:07.030Z,137.20
2019-03-27T12:19:37.949Z,137.57
2019-03-27T12:22:08.384Z,139.07
2019-03-27T12:24:38.577Z,146.17
2019-03-27T12:27:08.902Z,144.97
2019-03-27T12:29:39.092Z,141.13
2019-03-27T12:32:09.430Z,141.70
2019-03-27T12:34:40.686Z,143.63
2019-03-27T12:37:10.862Z,143.50
2019-03-27T12:39:41.248Z,139.10
2019-03-27T12:42:11.490Z,137.90
2019-03-27T12:44:41.873Z,137.97
2019-03-27T12:47:12.123Z,142.67
2019-03-27T12:49:42.391Z,141.67
2019-03-27T12:52:12.566Z,141.50
2019-03-27T12:54:42.751Z,138.87
2019-03-27T12:57:12.986Z,137.90
2019-03-27T12:59:43.243Z,138.23
2019-03-27T13:02:13.583Z,137.80
2019-03-27T13:04:43.799Z,138.77
2019-03-27T13:07:14.067Z,137.77
2019-03-27T13:09:44.267Z,139.43
2019-03-27T13:12:14.527Z,141.63
2019-03-27T13:14:44.803Z,139.17
2019-03-27T13:17:14.981Z,138.93
2019-03-27T13:19:45.177Z,145.07
2019-03-27T13:22:15.337Z,140.60
2019-03-27T13:24:45.567Z,136.90
2019-03-27T13:27:16.760Z,138.10
2019-03-27T13:29:46.946Z,139.13
2019-03-27T13:32:17.141Z,142.10
2019-03-27T13:34:47.327Z,137.00
2019-03-27T13:37:17.507Z,138.07
2019-03-27T13:39:47.770Z,137.80
2019-03-27T13:42:18.014Z,138.07
2019-03-27T13:44:48.226Z,140.50
2019-03-27T13:47:18.396Z,143.90
2019-03-27T13:49:48.587Z,143.03
2019-03-27T13:52:18.771Z,139.00
2019-03-27T13:55:12.291Z,138.17
2019-03-27T13:57:43.479Z,140.10
2019-03-27T14:00:15.970Z,137.53
2019-03-27T14:02:46.146Z,141.27
2019-03-27T14:05:16.624Z,142.47
2019-03-27T14:07:46.987Z,138.90
2019-03-27T14:10:17.714Z,141.53
2019-03-27T14:12:48.027Z,141.27
2019-03-27T14:15:19.469Z,145.53
2019-03-27T14:17:49.654Z,139.23
2019-03-27T14:20:20.699Z,140.07
2019-03-27T14:22:50.899Z,140.90
2019-03-27T14:25:22.220Z,140.87
2019-03-27T14:27:52.595Z,140.13
2019-03-27T14:30:49.442Z,138.83
2019-03-27T14:33:19.734Z,142.10
2019-03-27T14:35:49.931Z,144.53
2019-03-27T14:38:20.513Z,141.73
2019-03-27T14:40:52.338Z,141.40
2019-03-27T14:43:22.746Z,141.17
2019-03-27T14:45:53.189Z,143.93
2019-03-27T14:48:23.350Z,145.13
2019-03-27T14:50:54.782Z,143.73
2019-03-27T14:53:24.983Z,141.87
2019-03-27T14:55:55.255Z,142.90
2019-03-27T14:58:25.436Z,145.97
2019-03-27T15:00:55.642Z,149.10
2019-03-27T15:03:25.819Z,149.20
2019-03-27T15:05:56.043Z,150.90
2019-03-27T15:08:34.169Z,143.63
2019-03-27T15:11:04.427Z,144.37
2019-03-27T15:13:34.641Z,146.30
2019-03-27T15:16:05.002Z,146.07
2019-03-27T15:18:35.182Z,147.97
2019-03-27T15:21:05.549Z,155.70
2019-03-27T15:23:35.716Z,154.00
2019-03-27T15:26:06.339Z,153.17
2019-03-27T15:28:36.523Z,149.43
2019-03-27T15:31:19.482Z,152.87
2019-03-27T15:33:38.595Z,152.90
2019-03-27T15:36:08.783Z,152.63
2019-03-27T15:38:38.963Z,149.47
2019-03-27T15:41:09.175Z,151.33
2019-03-27T15:43:39.346Z,152.67
2019-03-27T15:46:09.539Z,160.67
2019-03-27T15:48:39.743Z,152.67
2019-03-27T15:51:09.963Z,147.47
2019-03-27T15:53:40.142Z,152.40
2019-03-27T15:56:10.336Z,151.20
2019-03-27T15:58:40.518Z,147.53
2019-03-27T16:01:11.082Z,149.67
2019-03-27T16:03:41.347Z,148.97
2019-03-27T16:06:11.544Z,150.77
2019-03-27T16:08:41.816Z,155.03
2019-03-27T16:11:12.207Z,150.53
2019-03-27T16:13:42.407Z,150.53
2019-03-27T16:16:12.742Z,150.80
2019-03-27T16:18:43.117Z,153.47
2019-03-27T16:21:13.315Z,146.23
2019-03-27T16:23:43.495Z,150.17
2019-03-27T16:26:13.677Z,148.33
2019-03-27T16:28:43.863Z,151.80
2019-03-27T16:31:14.127Z,146.17
2019-03-27T16:33:44.390Z,147.63
2019-03-27T16:36:14.574Z,148.53
2019-03-27T16:38:44.759Z,148.00
2019-03-27T16:41:16.023Z,157.60
2019-03-27T16:43:46.256Z,152.23
2019-03-27T16:46:16.526Z,148.00
2019-03-27T16:48:46.702Z,148.13
2019-03-27T16:51:17.403Z,158.37
2019-03-27T16:53:47.631Z,152.20
2019-03-27T16:56:17.851Z,145.10
2019-03-27T16:58:48.034Z,149.33
2019-03-27T17:01:18.288Z,146.23
2019-03-27T17:03:48.466Z,146.47
2019-03-27T17:06:18.738Z,147.17
2019-03-27T17:08:49.063Z,147.37
2019-03-27T17:11:19.255Z,146.53
2019-03-27T17:13:49.454Z,149.43
2019-03-27T17:16:19.626Z,149.43
2019-03-27T17:18:49.848Z,150.43
2019-03-27T17:21:20.147Z,149.30
2019-03-27T17:23:50.335Z,153.03
2019-03-27T17:26:20.607Z,151.93
2019-03-27T17:28:50.979Z,150.73
2019-03-27T17:31:21.249Z,147.30
2019-03-27T17:33:51.434Z,148.60
2019-03-27T17:36:21.636Z,150.73
2019-03-27T17:38:51.827Z,158.87
2019-03-27T17:41:22.028Z,152.40
2019-03-27T17:43:52.223Z,150.93
2019-03-27T17:46:22.434Z,150.93
2019-03-27T17:48:52.635Z,153.17
2019-03-27T17:51:22.810Z,152.27
2019-03-27T17:53:53.006Z,147.33
2019-03-27T17:56:23.374Z,151.67
2019-03-27T17:58:53.559Z,160.90
2019-03-27T18:01:23.831Z,149.53
2019-03-27T18:03:54.064Z,148.83
2019-03-27T18:06:24.255Z,149.17
2019-03-27T18:08:54.458Z,147.70
2019-03-27T18:11:24.646Z,148.77
2019-03-27T18:13:54.907Z,150.67
2019-03-27T18:16:25.114Z,150.27
2019-03-27T18:18:55.304Z,154.43
2019-03-27T18:21:25.495Z,153.17
2019-03-27T18:23:55.754Z,147.67
2019-03-27T18:26:25.924Z,145.53
2019-03-27T18:28:56.137Z,150.17
2019-03-27T18:31:36.223Z,148.30
2019-03-27T18:34:06.623Z,149.20
2019-03-27T18:36:45.779Z,146.73
2019-03-27T18:39:15.954Z,148.80
2019-03-27T18:41:46.135Z,145.03
2019-03-27T18:44:17.412Z,143.87
2019-03-27T18:46:54.757Z,142.57
2019-03-27T18:52:24.014Z,144.83
2019-03-27T18:54:54.199Z,143.23
2019-03-27T18:57:24.426Z,144.07
2019-03-27T18:59:54.647Z,152.13
2019-03-27T19:02:24.920Z,145.57
2019-03-27T19:04:55.093Z,145.77
2019-03-27T19:07:25.283Z,146.67
2019-03-27T19:09:55.547Z,144.90
2019-03-27T19:12:27.182Z,146.03
2019-03-27T19:14:57.605Z,146.83
2019-03-27T19:17:27.796Z,151.87
2019-03-27T19:19:57.967Z,149.57
2019-03-27T19:22:28.159Z,148.33
2019-03-27T19:24:58.344Z,161.37
2019-03-27T19:27:28.535Z,151.23
2019-03-27T19:29:58.710Z,148.70
2019-03-27T19:32:28.982Z,148.20
2019-03-27T19:34:59.290Z,150.77
2019-03-27T19:37:29.474Z,146.97
2019-03-27T19:40:01.094Z,149.87
2019-03-27T19:42:31.729Z,157.70
2019-03-27T19:45:02.331Z,149.73
2019-03-27T19:47:33.464Z,149.53
2019-03-27T19:50:04.363Z,149.90
2019-03-27T19:52:34.558Z,147.30
2019-03-27T19:55:05.074Z,148.27
2019-03-27T19:57:35.403Z,150.30
2019-03-27T20:00:07.659Z,149.23
2019-03-27T20:02:38.347Z,149.37
2019-03-27T20:05:09.024Z,154.63
2019-03-27T20:07:39.215Z,159.13
2019-03-27T20:10:10.686Z,153.50
2019-03-27T20:12:40.937Z,152.43
2019-03-27T20:15:12.773Z,153.60
2019-03-27T20:17:43.539Z,148.03
2019-03-27T20:20:14.309Z,148.93
2019-03-27T20:22:44.588Z,152.20
2019-03-27T20:25:15.148Z,153.60
2019-03-27T20:27:45.506Z,148.90
2019-03-27T20:30:16.890Z,149.27
2019-03-27T20:32:47.087Z,150.77
2019-03-27T20:35:17.368Z,154.07
2019-03-27T20:37:47.676Z,150.67
2019-03-27T20:40:19.030Z,152.83
2019-03-27T20:42:52.071Z,146.57
2019-03-27T20:45:21.198Z,147.57
2019-03-27T20:47:51.390Z,144.63
2019-03-27T20:50:21.902Z,147.97
2019-03-27T20:52:52.099Z,147.20
2019-03-27T20:55:30.232Z,145.97
2019-03-27T20:57:54.175Z,149.70
2019-03-27T21:00:24.363Z,145.23
2019-03-27T21:02:54.633Z,151.30
2019-03-27T21:05:24.816Z,149.17
2019-03-27T21:07:55.159Z,149.30
2019-03-27T21:10:25.415Z,151.40
2019-03-27T21:12:55.611Z,152.43
2019-03-27T21:15:25.797Z,150.77
2019-03-27T21:17:55.980Z,147.97
2019-03-27T21:20:26.212Z,149.23
2019-03-27T21:22:56.406Z,146.57
2019-03-27T21:25:26.631Z,146.23
2019-03-27T21:27:57.004Z,148.17
2019-03-27T21:30:27.186Z,154.10
2019-03-27T21:32:57.383Z,151.70
2019-03-27T21:35:27.597Z,154.53
2019-03-27T21:37:57.774Z,153.23
2019-03-27T21:40:27.955Z,153.70
2019-03-27T21:42:58.306Z,146.57
2019-03-27T21:45:28.486Z,141.43
2019-03-27T21:47:58.667Z,142.67
2019-03-27T21:50:28.859Z,143.50
2019-03-27T21:53:01.125Z,146.77
2019-03-27T21:55:42.165Z,145.20
2019-03-27T21:58:03.650Z,144.50
2019-03-27T22:00:39.308Z,151.63
2019-03-27T22:03:10.074Z,150.60
2019-03-27T22:05:40.318Z,150.13
2019-03-27T22:08:10.531Z,140.93
2019-03-27T22:10:40.742Z,145.73
2019-03-27T22:13:10.954Z,140.47
2019-03-27T22:15:41.379Z,142.60
2019-03-27T22:18:11.566Z,140.07
2019-03-27T22:20:41.739Z,140.20
2019-03-27T22:23:11.940Z,142.00
2019-03-27T22:25:42.129Z,144.57
2019-03-27T22:28:12.328Z,143.43
2019-03-27T22:30:46.123Z,140.53
2019-03-27T22:33:16.356Z,147.37
2019-03-27T22:35:46.534Z,155.07
2019-03-27T22:38:16.903Z,149.67
2019-03-27T22:40:48.158Z,146.10
2019-03-27T22:43:18.355Z,142.77
2019-03-27T22:45:48.548Z,140.93
2019-03-27T22:48:18.750Z,142.40
2019-03-27T22:50:48.932Z,141.50
2019-03-27T22:53:19.124Z,141.57
2019-03-27T22:55:50.526Z,143.97
2019-03-27T22:58:20.870Z,146.83
2019-03-27T23:00:54.507Z,143.53
2019-03-27T23:03:24.946Z,146.57
2019-03-27T23:05:55.195Z,150.83
2019-03-27T23:08:25.474Z,145.60
2019-03-27T23:10:55.654Z,152.00
2019-03-27T23:13:25.831Z,143.80
2019-03-27T23:15:56.160Z,143.43
2019-03-27T23:18:26.378Z,149.87
2019-03-27T23:20:56.655Z,155.63
2019-03-27T23:23:26.844Z,154.80
2019-03-27T23:26:02.888Z,153.63
2019-03-27T23:28:29.083Z,142.03
2019-03-27T23:30:59.258Z,149.90
2019-03-27T23:33:30.523Z,153.10
2019-03-27T23:36:00.706Z,152.70
2019-03-27T23:38:30.899Z,152.90
2019-03-27T23:41:01.084Z,150.37
2019-03-27T23:43:31.283Z,147.37
2019-03-27T23:46:01.461Z,150.47
2019-03-27T23:48:31.651Z,145.13
2019-03-27T23:51:01.828Z,144.67
2019-03-27T23:53:32.027Z,151.50
2019-03-27T23:56:15.522Z,151.07
2019-03-27T23:58:35.049Z,151.77
